Time;durP1;ratioP1;P1;durP2;ratioP2;P2;SDS_P1;SDS_P2;PMS_P1;PMS_P2;Temp;Humidity;BMP_temperature;BMP_pressure;BME280_temperature;BME280_humidity;BME280_pressure;Samples;Min_cycle;Max_cycle;Signal;HPM_P1;HPM_P2
2023/03/18 00:02:01;;;;;;;13.20;6.82;;;;;;;10.41;100.00;100150.56;4988209;28;20073;-83
2023/03/18 00:04:28;;;;;;;14.48;7.55;;;;;;;10.38;100.00;100164.00;4995085;28;20129;-82
2023/03/18 00:06:57;;;;;;;10.43;7.57;;;;;;;10.48;100.00;100177.69;4983723;28;20082;-79
2023/03/18 00:09:24;;;;;;;13.65;7.03;;;;;;;10.56;100.00;100173.28;5000529;28;20098;-84
2023/03/18 00:11:50;;;;;;;14.02;7.20;;;;;;;10.56;100.00;100182.91;4992914;28;20078;-83
2023/03/18 00:14:18;;;;;;;11.15;7.28;;;;;;;10.50;100.00;100166.09;4980390;28;20055;-82
2023/03/18 00:16:45;;;;;;;15.80;6.97;;;;;;;10.54;100.00;100170.00;4987686;28;20055;-82
2023/03/18 00:19:11;;;;;;;10.68;6.93;;;;;;;10.55;100.00;100176.88;4993107;28;20095;-79
2023/03/18 00:21:38;;;;;;;12.60;7.55;;;;;;;10.46;100.00;100171.81;5005068;28;20062;-81
2023/03/18 00:24:07;;;;;;;13.18;7.72;;;;;;;10.41;100.00;100164.47;4986359;28;20074;-80
2023/03/18 00:26:34;;;;;;;12.30;7.93;;;;;;;10.36;100.00;100158.13;4999590;28;20511;-78
2023/03/18 00:29:01;;;;;;;12.65;8.00;;;;;;;10.36;100.00;100176.44;5007602;28;20073;-79
2023/03/18 00:31:28;;;;;;;13.10;8.13;;;;;;;10.30;100.00;100152.56;5003033;28;20058;-77
2023/03/18 00:33:55;;;;;;;12.93;8.15;;;;;;;10.36;100.00;100160.75;4992257;28;20065;-79
2023/03/18 00:36:24;;;;;;;13.52;8.15;;;;;;;10.35;100.00;100159.13;5010696;28;20073;-80
2023/03/18 00:38:56;;;;;;;15.20;8.35;;;;;;;10.29;100.00;100168.44;5007978;28;20059;-78
2023/03/18 00:41:25;;;;;;;13.45;7.80;;;;;;;10.27;100.00;100165.16;5001994;28;20102;-78
2023/03/18 00:43:52;;;;;;;11.57;7.72;;;;;;;10.28;100.00;100164.19;4998990;28;20057;-79
2023/03/18 00:46:23;;;;;;;11.60;7.72;;;;;;;10.22;100.00;100154.38;4996348;28;20050;-78
2023/03/18 00:48:50;;;;;;;14.38;7.60;;;;;;;10.19;100.00;100159.91;5001809;28;20333;-79
2023/03/18 00:51:18;;;;;;;16.35;7.75;;;;;;;10.22;100.00;100170.88;5003375;28;20054;-79
2023/03/18 00:53:47;;;;;;;13.20;7.43;;;;;;;10.15;100.00;100176.91;5001114;28;20074;-80
2023/03/18 00:56:14;;;;;;;14.02;8.23;;;;;;;10.26;100.00;100187.88;5000846;28;20050;-80
2023/03/18 00:58:42;;;;;;;18.27;8.02;;;;;;;10.23;100.00;100169.91;4984645;28;20047;-80
2023/03/18 01:01:11;;;;;;;15.73;8.30;;;;;;;10.24;100.00;100168.94;4986345;28;20085;-79
2023/03/18 01:03:41;;;;;;;15.73;8.15;;;;;;;10.26;100.00;100161.72;4996963;28;20058;-78
2023/03/18 01:06:08;;;;;;;14.70;8.27;;;;;;;10.19;100.00;100165.97;4991989;28;20057;-77
2023/03/18 01:08:35;;;;;;;13.80;8.60;;;;;;;10.19;100.00;100155.53;4997968;28;20046;-77
2023/03/18 01:11:02;;;;;;;12.93;8.23;;;;;;;10.15;100.00;100148.97;4997082;28;20054;-80
2023/03/18 01:13:29;;;;;;;14.68;9.43;;;;;;;10.09;100.00;100154.03;4997196;28;20507;-79
2023/03/18 01:15:58;;;;;;;15.80;9.25;;;;;;;10.14;100.00;100172.66;4995243;28;20042;-79
2023/03/18 01:18:25;;;;;;;14.35;9.18;;;;;;;10.13;100.00;100171.03;4991684;28;20141;-76
2023/03/18 01:20:51;;;;;;;13.85;8.50;;;;;;;10.11;100.00;100172.97;4997437;28;20088;-78
2023/03/18 01:23:18;;;;;;;18.95;9.60;;;;;;;10.25;100.00;100186.25;4992344;28;20050;-79
2023/03/18 01:25:45;;;;;;;17.08;9.68;;;;;;;10.13;100.00;100169.22;4976931;28;20102;-78
2023/03/18 01:28:12;;;;;;;13.95;9.60;;;;;;;10.15;100.00;100187.34;4989327;28;20073;-76
2023/03/18 01:30:39;;;;;;;15.38;9.32;;;;;;;10.21;100.00;100181.50;4997014;28;20081;-81
2023/03/18 01:33:08;;;;;;;13.90;8.65;;;;;;;10.24;100.00;100184.63;4986842;28;20083;-80
2023/03/18 01:35:35;;;;;;;15.65;10.10;;;;;;;10.16;100.00;100178.53;4985682;28;20051;-79
2023/03/18 01:38:04;;;;;;;11.18;8.43;;;;;;;10.17;100.00;100172.31;4995514;28;20073;-80
2023/03/18 01:40:32;;;;;;;18.30;9.35;;;;;;;10.20;100.00;100172.03;4977692;28;20054;-79
2023/03/18 01:43:18;;;;;;;15.02;9.05;;;;;;;10.23;100.00;100184.78;4996054;28;20481;-79
2023/03/18 01:45:48;;;;;;;13.18;9.70;;;;;;;10.23;100.00;100185.59;4994666;28;20046;-80
2023/03/18 01:48:18;;;;;;;16.35;9.52;;;;;;;10.22;100.00;100164.84;4991370;28;20077;-80
2023/03/18 01:50:54;;;;;;;14.35;8.90;;;;;;;10.20;100.00;100153.72;4997657;28;20078;-79
2023/03/18 01:53:23;;;;;;;15.07;10.18;;;;;;;10.18;100.00;100143.41;4998726;28;20061;-80
2023/03/18 01:55:51;;;;;;;19.15;10.05;;;;;;;10.19;100.00;100139.84;4999418;28;20066;-79
2023/03/18 01:58:21;;;;;;;15.43;10.10;;;;;;;10.23;100.00;100148.97;5000704;28;20050;-81
2023/03/18 02:00:54;;;;;;;15.65;10.25;;;;;;;10.20;100.00;100151.13;5003843;28;20084;-80
2023/03/18 02:03:22;;;;;;;14.82;9.93;;;;;;;10.18;100.00;100153.03;4997810;28;20097;-79
2023/03/18 02:05:50;;;;;;;13.95;9.75;;;;;;;10.16;100.00;100161.06;4999697;28;20106;-82
2023/03/18 02:08:17;;;;;;;16.52;10.65;;;;;;;10.14;100.00;100167.44;5003408;28;20082;-82
2023/03/18 02:10:44;;;;;;;17.98;11.25;;;;;;;10.13;100.00;100150.91;4988055;28;20078;-80
2023/03/18 02:13:13;;;;;;;18.70;10.48;;;;;;;10.10;100.00;100153.03;4998578;28;20110;-78
2023/03/18 02:15:46;;;;;;;16.27;11.00;;;;;;;10.09;100.00;100169.72;4986968;28;20050;-80
2023/03/18 02:18:14;;;;;;;;;;;;;;;10.06;100.00;100172.66;4994862;28;20117;-82
2023/03/18 02:21:00;;;;;;;16.55;10.63;;;;;;;9.97;100.00;100166.59;4986442;28;19922;-78
2023/03/18 02:23:41;;;;;;;16.88;10.85;;;;;;;9.94;100.00;100162.50;4995309;28;20145;-79
2023/03/18 02:26:14;;;;;;;18.88;10.93;;;;;;;9.88;100.00;100165.00;4988776;28;20231;-80
2023/03/18 02:28:44;;;;;;;21.40;11.35;;;;;;;9.74;100.00;100166.44;4998050;28;20109;-80
2023/03/18 02:31:15;;;;;;;18.98;10.93;;;;;;;9.63;100.00;100149.28;5010724;28;20074;-82
2023/03/18 02:33:43;;;;;;;15.50;10.70;;;;;;;9.65;100.00;100163.00;4999085;28;20055;-82
2023/03/18 02:36:15;;;;;;;20.15;10.80;;;;;;;9.61;100.00;100160.88;4993604;28;20062;-78
2023/03/18 02:38:42;;;;;;;19.10;10.27;;;;;;;9.48;100.00;100161.31;4989648;28;20406;-80
2023/03/18 02:41:15;;;;;;;16.08;10.52;;;;;;;9.49;100.00;100173.41;5006286;28;20501;-80
2023/03/18 02:43:47;;;;;;;17.15;10.27;;;;;;;9.45;100.00;100159.03;5002471;28;20410;-79
2023/03/18 02:46:35;;;;;;;17.50;10.88;;;;;;;9.36;100.00;100165.25;4996019;28;20126;-80
2023/03/18 02:49:05;;;;;;;16.83;10.30;;;;;;;9.31;100.00;100175.34;5000695;28;20129;-80
2023/03/18 02:51:32;;;;;;;18.10;10.05;;;;;;;9.22;100.00;100178.91;4987267;28;20072;-82
2023/03/18 02:54:04;;;;;;;21.20;10.48;;;;;;;9.16;100.00;100162.06;5000037;28;20053;-80
2023/03/18 02:56:31;;;;;;;18.33;10.27;;;;;;;9.14;100.00;100176.25;5000784;28;20086;-80
2023/03/18 02:59:01;;;;;;;20.27;11.77;;;;;;;9.06;100.00;100177.03;5001056;28;20093;-80
2023/03/18 03:01:28;;;;;;;18.42;11.57;;;;;;;9.04;100.00;100193.81;4995970;28;20063;-80
2023/03/18 03:04:00;;;;;;;19.48;12.00;;;;;;;8.95;100.00;100185.97;4982003;28;20138;-79
2023/03/18 03:06:27;;;;;;;20.63;11.70;;;;;;;8.91;100.00;100194.28;4982809;28;20058;-81
2023/03/18 03:30:04;;;;;;;22.17;13.15;;;;;;;8.41;100.00;100197.56;4920611;29;20056;-84
2023/03/18 03:32:45;;;;;;;19.05;13.13;;;;;;;8.45;100.00;100213.72;4922300;29;20060;-84
2023/03/18 03:35:21;;;;;;;18.77;12.73;;;;;;;8.32;100.00;100196.69;4916027;29;20076;-83
2023/03/18 03:37:55;;;;;;;18.40;13.73;;;;;;;8.27;100.00;100196.28;4922625;29;20135;-83
2023/03/18 03:40:22;;;;;;;20.95;13.65;;;;;;;8.27;100.00;100200.69;4965403;23;20108;-80
2023/03/18 03:42:49;;;;;;;21.45;13.55;;;;;;;8.28;100.00;100223.19;4994616;28;20143;-79
2023/03/18 03:45:19;;;;;;;23.35;12.90;;;;;;;8.24;100.00;100230.47;5012464;28;20110;-80
2023/03/18 03:47:46;;;;;;;18.88;13.75;;;;;;;8.24;100.00;100222.66;5000628;28;20113;-81
2023/03/18 03:50:15;;;;;;;20.88;12.68;;;;;;;8.28;100.00;100233.59;4999549;28;20057;-81
2023/03/18 03:52:42;;;;;;;18.23;12.68;;;;;;;8.29;100.00;100236.06;4983917;28;20085;-81
2023/03/18 03:55:12;;;;;;;24.27;14.18;;;;;;;8.30;100.00;100229.06;4975996;28;20537;-82
2023/03/18 03:57:39;;;;;;;19.95;13.63;;;;;;;8.26;100.00;100246.78;4978811;28;20441;-81
2023/03/18 04:00:09;;;;;;;19.65;14.02;;;;;;;8.20;100.00;100246.56;4988968;28;20098;-82
2023/03/18 04:02:37;;;;;;;22.20;13.85;;;;;;;8.19;100.00;100235.31;4983821;28;20062;-81
2023/03/18 04:05:04;;;;;;;19.55;13.75;;;;;;;8.11;100.00;100243.06;4991415;28;20102;-79
2023/03/18 04:07:34;;;;;;;19.90;13.82;;;;;;;8.02;100.00;100245.78;4981898;28;20153;-83
2023/03/18 04:10:01;;;;;;;21.90;14.23;;;;;;;7.98;100.00;100237.44;4982815;28;20055;-85
2023/03/18 04:12:28;;;;;;;19.95;14.40;;;;;;;7.97;100.00;100241.00;4981892;28;20146;-83
2023/03/18 04:14:59;;;;;;;20.08;14.05;;;;;;;7.98;100.00;100247.84;4989454;28;20513;-83
2023/03/18 04:17:29;;;;;;;18.95;14.32;;;;;;;7.93;100.00;100255.28;4974764;28;20050;-84
2023/03/18 04:19:57;;;;;;;24.20;14.80;;;;;;;7.96;100.00;100260.22;4983062;28;20081;-82
2023/03/18 04:25:14;;;;;;;20.77;14.50;;;;;;;7.93;100.00;100256.13;4969532;28;20054;-80
2023/03/18 04:27:41;;;;;;;22.95;15.25;;;;;;;8.08;100.00;100268.59;4975102;28;20133;-78
2023/03/18 04:30:10;;;;;;;25.27;15.98;;;;;;;8.14;100.00;100268.81;4982395;28;20074;-81
2023/03/18 04:32:37;;;;;;;21.48;14.55;;;;;;;8.14;100.00;100274.03;4971212;28;20477;-79
2023/03/18 04:35:07;;;;;;;22.73;14.85;;;;;;;8.20;100.00;100277.84;4974262;28;20134;-80
2023/03/18 04:37:35;;;;;;;26.38;16.02;;;;;;;8.26;100.00;100283.28;4973675;28;20498;-79
2023/03/18 04:40:03;;;;;;;21.23;15.13;;;;;;;8.35;100.00;100278.19;4974347;28;20426;-78
2023/03/18 04:42:30;;;;;;;25.85;15.52;;;;;;;8.51;100.00;100280.91;4986351;28;20401;-80
2023/03/18 04:44:57;;;;;;;23.48;14.38;;;;;;;8.50;100.00;100279.28;4986593;28;20138;-80
2023/03/18 04:47:27;;;;;;;22.88;14.82;;;;;;;8.66;100.00;100287.22;4978011;28;20050;-80
2023/03/18 04:49:57;;;;;;;19.80;13.50;;;;;;;8.65;100.00;100283.78;4986067;28;20111;-80
2023/03/18 04:52:26;;;;;;;23.15;14.07;;;;;;;8.67;100.00;100291.47;4976691;28;20496;-80
2023/03/18 04:54:52;;;;;;;20.92;13.00;;;;;;;8.64;100.00;100291.75;4983105;28;20074;-81
2023/03/18 04:57:19;;;;;;;18.15;13.25;;;;;;;8.64;100.00;100291.75;4977049;28;20074;-80
2023/03/18 04:59:46;;;;;;;18.33;13.02;;;;;;;8.67;100.00;100286.25;4985079;28;20046;-81
2023/03/18 05:02:12;;;;;;;21.65;12.65;;;;;;;8.58;100.00;100276.72;4981890;28;20051;-79
2023/03/18 05:04:42;;;;;;;20.38;12.75;;;;;;;8.64;100.00;100278.72;4995668;28;20254;-80
2023/03/18 05:07:25;;;;;;;20.70;13.30;;;;;;;8.57;100.00;100288.13;4986493;28;20049;-83
2023/03/18 05:09:54;;;;;;;23.70;13.60;;;;;;;8.54;100.00;100275.38;4997193;28;20054;-82
2023/03/18 05:12:20;;;;;;;17.83;13.18;;;;;;;8.53;100.00;100289.38;4982183;28;20512;-81
2023/03/18 05:14:47;;;;;;;17.08;12.75;;;;;;;8.49;100.00;100277.66;4988276;28;20046;-80
2023/03/18 05:17:15;;;;;;;21.92;13.15;;;;;;;8.53;100.00;100284.16;4980475;28;20114;-82
2023/03/18 05:19:43;;;;;;;18.88;12.73;;;;;;;8.54;100.00;100284.03;4987511;28;20053;-79
2023/03/18 05:22:10;;;;;;;21.33;12.52;;;;;;;8.56;100.00;100279.47;4985785;28;20086;-81
2023/03/18 05:24:37;;;;;;;19.25;13.27;;;;;;;8.59;100.00;100288.78;4987312;28;20050;-80
2023/03/18 05:27:05;;;;;;;20.65;13.27;;;;;;;8.60;100.00;100291.25;4988970;28;20086;-82
2023/03/18 05:29:32;;;;;;;24.67;13.07;;;;;;;8.57;100.00;100280.28;4992592;28;20463;-78
2023/03/18 05:31:58;;;;;;;17.38;12.20;;;;;;;8.49;100.00;100282.84;4985053;28;20074;-82
2023/03/18 05:34:26;;;;;;;17.00;11.90;;;;;;;8.44;100.00;100285.09;4997468;28;20114;-82
2023/03/18 05:36:52;;;;;;;20.65;12.65;;;;;;;8.40;100.00;100294.19;5000127;28;20072;-78
2023/03/18 05:39:19;;;;;;;17.20;12.25;;;;;;;8.35;100.00;100288.59;4999498;28;20062;-82
2023/03/18 05:41:46;;;;;;;18.98;12.38;;;;;;;8.29;100.00;100282.16;4999000;28;20054;-80
2023/03/18 05:44:15;;;;;;;22.50;13.10;;;;;;;8.26;100.00;100296.31;5002871;28;20178;-81
2023/03/18 05:46:42;;;;;;;17.50;12.40;;;;;;;8.22;100.00;100304.56;4992735;28;20046;-81
2023/03/18 05:49:09;;;;;;;22.45;12.43;;;;;;;8.19;100.00;100299.66;4981668;28;20599;-81
2023/03/18 05:51:36;;;;;;;18.95;11.82;;;;;;;8.16;100.00;100302.56;4987253;28;20055;-80
2023/03/18 05:54:04;;;;;;;17.90;12.27;;;;;;;8.16;100.00;100316.41;4977239;28;20141;-81
2023/03/18 05:56:31;;;;;;;19.00;11.90;;;;;;;8.18;100.00;100316.25;4976518;28;20055;-81
2023/03/18 05:58:58;;;;;;;18.83;12.43;;;;;;;8.09;100.00;100323.19;4976526;28;20446;-82
2023/03/18 06:01:27;;;;;;;17.42;12.13;;;;;;;8.02;100.00;100319.53;4981867;28;20050;-81
2023/03/18 06:03:54;;;;;;;16.10;11.95;;;;;;;7.97;100.00;100327.81;4979793;28;20086;-81
2023/03/18 06:06:20;;;;;;;18.80;11.90;;;;;;;7.95;100.00;100334.13;4979057;28;20110;-80
2023/03/18 06:08:47;;;;;;;17.75;11.93;;;;;;;7.97;100.00;100329.59;4978166;28;20138;-81
2023/03/18 06:11:14;;;;;;;19.20;12.05;;;;;;;8.01;100.00;100324.91;4977786;28;20115;-81
2023/03/18 06:13:40;;;;;;;17.25;11.32;;;;;;;8.04;100.00;100324.59;4986677;28;20097;-81
2023/03/18 06:16:08;;;;;;;18.70;11.93;;;;;;;8.11;100.00;100316.03;4987942;28;20050;-81
2023/03/18 06:18:36;;;;;;;16.08;11.15;;;;;;;8.19;100.00;100326.53;4978852;28;20047;-81
2023/03/18 06:21:03;;;;;;;18.60;11.52;;;;;;;8.20;100.00;100324.75;4983987;28;20566;-80
2023/03/18 06:23:30;;;;;;;20.88;11.73;;;;;;;8.23;100.00;100319.25;4986094;28;20114;-81
2023/03/18 06:25:59;;;;;;;16.25;12.25;;;;;;;8.24;100.00;100316.50;4982890;28;20106;-82
2023/03/18 06:28:25;;;;;;;18.17;12.45;;;;;;;8.45;100.00;100333.66;4979852;28;20125;-82
2023/03/18 06:30:55;;;;;;;19.63;11.48;;;;;;;8.87;100.00;100326.84;4983014;28;20133;-82
2023/03/18 06:33:22;;;;;;;16.42;11.38;;;;;;;9.34;100.00;100331.69;4980267;28;20110;-82
2023/03/18 06:35:50;;;;;;;13.63;10.30;;;;;;;10.17;100.00;100327.41;4988475;28;20137;-82
2023/03/18 06:38:16;;;;;;;13.02;9.40;;;;;;;10.74;100.00;100324.88;4984374;28;20137;-82
2023/03/18 06:40:44;;;;;;;13.95;8.57;;;;;;;11.68;100.00;100315.47;4984347;28;20055;-82
2023/03/18 06:43:11;;;;;;;10.77;7.38;;;;;;;12.55;100.00;100316.91;4983813;28;20106;-82
2023/03/18 06:45:38;;;;;;;11.02;6.85;;;;;;;13.49;96.72;100332.09;4982380;28;20043;-83
2023/03/18 06:48:05;;;;;;;10.13;6.75;;;;;;;13.82;90.94;100329.06;4984414;28;20089;-81
2023/03/18 06:50:33;;;;;;;9.15;6.88;;;;;;;14.18;86.85;100321.16;4985654;28;20046;-82
2023/03/18 06:53:01;;;;;;;10.10;6.55;;;;;;;14.43;84.43;100311.13;4987301;28;20058;-81
2023/03/18 06:55:28;;;;;;;10.75;6.55;;;;;;;14.95;82.80;100316.00;4988834;28;20057;-82
2023/03/18 06:57:55;;;;;;;8.48;5.95;;;;;;;15.32;80.69;100317.44;4988321;28;20046;-83
2023/03/18 07:00:23;;;;;;;9.07;6.15;;;;;;;15.72;78.98;100315.81;4987628;28;20082;-82
2023/03/18 07:02:50;;;;;;;7.95;6.30;;;;;;;15.31;78.56;100310.53;4984108;28;20078;-81
2023/03/18 07:05:17;;;;;;;8.77;5.90;;;;;;;15.40;78.41;100314.66;4983844;28;20129;-82
2023/03/18 07:07:45;;;;;;;10.63;6.95;;;;;;;15.49;78.44;100325.84;4983180;28;20115;-81
2023/03/18 07:10:19;;;;;;;11.15;6.20;;;;;;;15.76;77.32;100324.16;4983076;28;20082;-79
2023/03/18 07:12:46;;;;;;;9.45;6.18;;;;;;;15.54;77.41;100326.91;4979494;28;20046;-81
2023/03/18 07:15:13;;;;;;;10.35;6.68;;;;;;;15.26;77.89;100332.22;4988060;28;20076;-82
2023/03/18 07:17:40;;;;;;;11.10;5.95;;;;;;;15.17;78.70;100332.53;4982350;28;20081;-81
2023/03/18 07:20:07;;;;;;;9.05;6.07;;;;;;;15.37;78.58;100345.84;4979470;28;20473;-80
2023/03/18 07:22:36;;;;;;;9.52;5.82;;;;;;;15.65;77.71;100336.09;4981614;28;20066;-82
2023/03/18 07:25:02;;;;;;;10.00;6.25;;;;;;;15.91;77.02;100333.56;4987562;28;20043;-82
2023/03/18 07:27:30;;;;;;;8.68;5.60;;;;;;;16.25;75.46;100337.91;4980071;28;20065;-80
2023/03/18 07:29:57;;;;;;;7.35;5.65;;;;;;;16.91;74.73;100334.56;4987232;28;20133;-80
2023/03/18 07:32:24;;;;;;;8.30;5.60;;;;;;;16.51;73.67;100320.50;4979113;28;20283;-81
2023/03/18 07:34:50;;;;;;;8.07;5.40;;;;;;;16.69;74.22;100333.13;4979574;28;20115;-81
2023/03/18 07:37:17;;;;;;;7.60;5.50;;;;;;;17.51;72.65;100324.66;4986109;28;20122;-80
2023/03/18 07:39:43;;;;;;;7.80;5.30;;;;;;;17.44;72.55;100329.97;4979357;28;20078;-81
2023/03/18 07:42:10;;;;;;;7.20;5.40;;;;;;;17.38;72.04;100330.00;4978591;28;20086;-81
2023/03/18 07:44:38;;;;;;;6.70;5.00;;;;;;;17.32;71.60;100329.00;4979069;28;20086;-80
2023/03/18 07:47:05;;;;;;;7.40;5.00;;;;;;;17.62;71.05;100326.66;4979650;28;20050;-80
2023/03/18 07:49:32;;;;;;;7.00;5.05;;;;;;;17.40;71.02;100334.06;4983722;28;20082;-80
2023/03/18 07:51:58;;;;;;;8.10;5.30;;;;;;;16.76;73.48;100349.78;4987137;28;20050;-80
2023/03/18 07:54:25;;;;;;;9.00;5.35;;;;;;;17.03;73.24;100353.22;4989277;28;20133;-79
2023/03/18 07:56:52;;;;;;;10.85;5.28;;;;;;;16.93;73.27;100345.72;4976699;28;20130;-82
2023/03/18 07:59:19;;;;;;;8.93;5.50;;;;;;;17.69;71.77;100345.19;4981746;28;20133;-80
2023/03/18 08:01:47;;;;;;;8.00;5.65;;;;;;;17.55;70.46;100347.03;4974759;28;20498;-81
2023/03/18 08:04:15;;;;;;;8.52;5.10;;;;;;;17.20;71.22;100357.06;4987215;28;20062;-81
2023/03/18 08:06:42;;;;;;;7.32;5.22;;;;;;;17.35;71.24;100362.16;4978598;28;20057;-82
2023/03/18 08:09:09;;;;;;;5.95;4.93;;;;;;;17.23;71.32;100357.47;4976734;28;20142;-82
2023/03/18 08:11:37;;;;;;;7.53;5.10;;;;;;;17.27;71.15;100363.16;4983693;28;20054;-83
2023/03/18 08:14:03;;;;;;;7.20;5.10;;;;;;;17.15;71.82;100370.91;4995310;28;20082;-81
2023/03/18 08:16:30;;;;;;;7.90;4.85;;;;;;;17.36;70.77;100369.88;4994415;28;20082;-83
2023/03/18 08:18:58;;;;;;;5.70;4.82;;;;;;;17.76;70.07;100357.38;4982975;28;20051;-83
2023/03/18 08:21:25;;;;;;;8.63;5.00;;;;;;;17.70;69.81;100350.25;4975879;28;20065;-82
2023/03/18 08:23:51;;;;;;;6.30;4.78;;;;;;;17.51;69.49;100353.75;4978410;28;20482;-82
2023/03/18 08:26:18;;;;;;;7.13;5.28;;;;;;;17.22;70.01;100352.41;4984242;28;20137;-83
2023/03/18 08:28:44;;;;;;;7.55;4.95;;;;;;;16.98;71.59;100360.97;4982215;28;20038;-84
2023/03/18 08:31:13;;;;;;;6.35;4.90;;;;;;;16.72;71.92;100369.69;4982083;28;20093;-83
2023/03/18 08:33:40;;;;;;;7.45;5.47;;;;;;;17.14;72.23;100373.75;4998428;28;20054;-82
2023/03/18 08:36:08;;;;;;;5.32;4.70;;;;;;;17.11;71.18;100371.53;4991871;28;20050;-82
2023/03/18 08:38:35;;;;;;;8.55;5.07;;;;;;;16.85;71.91;100375.81;4993351;28;20133;-82
2023/03/18 08:41:02;;;;;;;6.80;4.70;;;;;;;17.80;70.24;100377.09;4982209;28;20248;-82
2023/03/18 08:43:29;;;;;;;7.43;4.82;;;;;;;17.99;68.82;100364.78;4987404;28;20081;-81
2023/03/18 08:45:58;;;;;;;9.88;5.72;;;;;;;17.74;69.29;100361.25;4995873;28;20054;-82
2023/03/18 08:48:25;;;;;;;7.13;4.95;;;;;;;17.19;70.21;100369.47;4984505;28;20051;-83
2023/03/18 08:50:54;;;;;;;6.78;4.47;;;;;;;17.30;70.79;100391.84;4984833;28;20166;-83
2023/03/18 08:53:24;;;;;;;9.05;4.95;;;;;;;17.03;71.65;100390.22;4981385;28;20560;-83
2023/03/18 08:55:51;;;;;;;9.40;5.30;;;;;;;16.50;73.93;100398.09;4992377;28;20077;-83
2023/03/18 08:58:17;;;;;;;7.85;4.70;;;;;;;16.57;73.06;100380.41;4986943;28;20043;-82
2023/03/18 09:00:44;;;;;;;9.55;5.03;;;;;;;17.02;72.66;100391.25;4982867;28;20085;-82
2023/03/18 09:03:11;;;;;;;8.43;4.90;;;;;;;16.98;72.71;100377.66;4975233;28;20168;-82
2023/03/18 09:05:39;;;;;;;7.28;4.32;;;;;;;17.04;71.54;100370.72;4974488;28;20125;-82
2023/03/18 09:08:06;;;;;;;8.23;4.35;;;;;;;17.06;71.49;100376.59;4974826;28;20073;-82
2023/03/18 09:10:53;;;;;;;6.30;4.70;;;;;;;17.15;72.43;100389.41;4986522;28;20046;-84
2023/03/18 09:13:20;;;;;;;7.88;4.43;;;;;;;16.87;72.67;100381.72;4981811;28;20054;-83
2023/03/18 09:15:47;;;;;;;6.10;4.40;;;;;;;16.51;73.54;100382.06;4989407;28;20113;-82
2023/03/18 09:18:15;;;;;;;8.50;4.72;;;;;;;16.68;73.81;100382.50;4981929;28;20050;-79
2023/03/18 09:20:42;;;;;;;6.00;4.50;;;;;;;16.41;74.36;100378.16;4988897;28;20132;-82
2023/03/18 09:23:10;;;;;;;6.72;4.88;;;;;;;16.46;74.44;100381.03;4996885;28;20050;-81
2023/03/18 09:25:38;;;;;;;7.65;4.80;;;;;;;16.54;74.25;100379.00;4984999;28;20057;-82
2023/03/18 09:28:05;;;;;;;6.47;4.43;;;;;;;16.74;74.26;100381.69;4985987;28;20154;-82
2023/03/18 09:30:37;;;;;;;9.77;4.03;;;;;;;16.85;73.87;100373.16;4993768;28;20497;-83
2023/03/18 09:33:23;;;;;;;6.88;4.40;;;;;;;17.11;73.17;100374.97;4997207;28;20051;-83
2023/03/18 09:35:50;;;;;;;7.47;4.53;;;;;;;16.79;72.70;100373.97;4990665;28;20443;-82
2023/03/18 09:38:21;;;;;;;8.43;4.30;;;;;;;16.44;72.52;100373.31;4988683;28;20065;-81
2023/03/18 09:40:59;;;;;;;8.63;4.13;;;;;;;16.07;74.71;100379.09;5001970;23;20031;-80
2023/03/18 09:43:44;;;;;;;6.82;4.32;;;;;;;16.53;73.89;100371.28;5003449;28;20082;-80
2023/03/18 09:46:20;;;;;;;7.70;4.43;;;;;;;16.64;73.17;100365.41;4999092;28;20058;-79
2023/03/18 09:49:23;;;;;;;5.93;4.22;;;;;;;16.34;72.75;100366.78;4996204;28;20054;-78
2023/03/18 09:52:00;;;;;;;6.20;4.30;;;;;;;16.99;73.01;100378.47;5005143;28;20450;-77
2023/03/18 09:54:37;;;;;;;6.78;4.60;;;;;;;17.03;72.01;100369.09;5001472;28;20058;-78
2023/03/18 09:57:11;;;;;;;7.32;4.25;;;;;;;16.83;71.60;100364.63;5001102;28;20058;-78
2023/03/18 09:59:42;;;;;;;7.57;4.60;;;;;;;15.94;73.18;100374.59;5002661;28;20054;-77
2023/03/18 10:02:20;;;;;;;7.70;4.53;;;;;;;15.63;75.55;100395.31;4996210;28;20051;-78
2023/03/18 10:04:53;;;;;;;8.25;4.32;;;;;;;15.75;74.98;100385.84;5011097;28;20082;-77
2023/03/18 10:07:29;;;;;;;6.60;4.35;;;;;;;15.49;76.88;100391.78;5003160;28;20604;-77
2023/03/18 10:10:03;;;;;;;16.50;12.55;;;;;;;16.01;77.07;100401.81;5012345;28;20110;-78
2023/03/18 10:12:35;;;;;;;6.53;4.70;;;;;;;15.87;75.97;100376.38;5008574;28;20094;-77
2023/03/18 10:15:15;;;;;;;7.25;4.60;;;;;;;15.92;76.20;100379.25;4996599;28;20050;-78
2023/03/18 10:17:44;;;;;;;12.68;5.50;;;;;;;15.76;76.19;100372.47;4994942;28;20050;-79
2023/03/18 10:20:18;;;;;;;8.35;5.47;;;;;;;15.68;77.21;100395.53;5009290;28;20508;-77
2023/03/18 10:23:11;;;;;;;8.38;5.72;;;;;;;15.40;78.20;100393.75;5014475;28;20050;-80
2023/03/18 10:25:42;;;;;;;19.08;16.13;;;;;;;16.03;77.40;100385.78;5002867;28;20134;-77
2023/03/18 10:28:28;;;;;;;8.65;5.57;;;;;;;15.55;77.00;100381.28;5007234;28;20046;-78
2023/03/18 10:31:07;;;;;;;13.73;8.73;;;;;;;16.46;75.93;100383.66;5004935;28;20408;-78
2023/03/18 10:33:45;;;;;;;7.60;5.32;;;;;;;15.96;75.40;100379.66;5002969;28;20405;-77
2023/03/18 10:36:17;;;;;;;7.72;5.30;;;;;;;16.27;75.31;100362.28;5000882;28;20509;-77
2023/03/18 10:38:46;;;;;;;;;;;;;;;17.10;73.52;100381.28;5003161;28;20077;-77
2023/03/18 10:41:19;;;;;;;14.10;7.63;;;;;;;15.87;74.89;100384.28;5002106;28;19925;-76
2023/03/18 10:43:50;;;;;;;8.15;5.20;;;;;;;16.29;74.81;100382.41;5001098;28;20047;-78
2023/03/18 10:46:20;;;;;;;8.63;5.13;;;;;;;16.18;74.59;100373.22;4999938;28;20047;-78
2023/03/18 10:48:50;;;;;;;9.35;5.30;;;;;;;16.26;74.67;100363.31;4999545;28;20580;-78
2023/03/18 10:51:21;;;;;;;6.97;4.65;;;;;;;16.19;74.13;100361.66;5003723;28;20105;-79
2023/03/18 10:53:55;;;;;;;7.10;5.40;;;;;;;16.15;74.13;100369.16;5005849;28;20136;-77
2023/03/18 10:56:22;;;;;;;10.77;5.93;;;;;;;15.82;74.21;100376.97;5003747;28;20132;-77
2023/03/18 10:58:51;;;;;;;8.63;5.00;;;;;;;15.99;74.10;100371.34;5002436;28;20117;-80
2023/03/18 11:01:21;;;;;;;9.35;5.20;;;;;;;16.21;73.90;100371.00;5005093;28;20053;-78
2023/03/18 11:03:51;;;;;;;7.53;4.97;;;;;;;16.24;73.93;100375.88;5012443;28;20093;-78
2023/03/18 11:06:23;;;;;;;8.52;5.03;;;;;;;16.66;73.96;100366.03;5019692;28;20046;-75
2023/03/18 11:08:49;;;;;;;10.05;5.82;;;;;;;16.67;73.14;100372.94;5011979;28;20149;-78
2023/03/18 11:11:22;;;;;;;6.78;4.80;;;;;;;16.75;73.91;100372.75;5012173;28;20057;-78
2023/03/18 11:13:52;;;;;;;;;;;;;;;17.07;71.50;100367.66;5010167;28;20132;-77
2023/03/18 11:16:28;;;;;;;7.68;3.97;;;;;;;17.23;70.35;100365.41;5006222;28;19921;-76
2023/03/18 11:18:55;;;;;;;5.15;3.28;;;;;;;17.04;69.79;100376.81;5005269;28;20069;-79
2023/03/18 11:21:22;;;;;;;6.43;3.60;;;;;;;17.03;69.62;100369.91;5002687;28;20050;-76
2023/03/18 11:24:07;;;;;;;6.20;3.90;;;;;;;17.25;70.60;100373.94;5008152;28;20121;-76
2023/03/18 11:26:45;;;;;;;6.07;4.20;;;;;;;17.53;69.16;100373.69;5005914;28;20081;-78
2023/03/18 11:29:17;;;;;;;6.55;4.25;;;;;;;17.55;68.71;100374.28;5007087;28;20489;-77
2023/03/18 11:31:53;;;;;;;8.43;4.13;;;;;;;17.16;69.04;100371.72;5004855;28;20057;-75
2023/03/18 11:34:20;;;;;;;6.43;4.43;;;;;;;16.88;69.75;100372.78;5004781;28;20050;-77
2023/03/18 11:37:03;;;;;;;7.43;4.13;;;;;;;16.88;70.77;100378.06;5002878;28;20149;-78
2023/03/18 11:39:32;;;;;;;5.90;3.75;;;;;;;16.90;70.40;100376.03;5002348;28;20050;-79
2023/03/18 11:42:00;;;;;;;7.65;4.15;;;;;;;16.73;70.94;100373.97;5003051;28;20487;-77
2023/03/18 11:44:32;;;;;;;7.25;3.80;;;;;;;17.03;70.08;100367.25;5000099;28;20047;-77
2023/03/18 11:47:04;;;;;;;5.72;3.50;;;;;;;17.11;68.92;100355.66;5000200;28;20141;-78
2023/03/18 11:49:31;;;;;;;8.85;3.80;;;;;;;17.12;67.88;100359.94;4999008;28;20050;-77
2023/03/18 11:52:22;;;;;;;6.45;3.30;;;;;;;17.45;67.65;100355.41;5004211;28;20042;-75